createdAt,value
2018-07-26T00:01:06.297Z,16.73
2018-07-26T00:03:35.696Z,16.23
2018-07-26T00:06:05.245Z,16.97
2018-07-26T00:08:34.666Z,14.67
2018-07-26T00:11:04.065Z,15.10
2018-07-26T00:13:33.422Z,16.93
2018-07-26T00:16:02.896Z,15.27
2018-07-26T00:18:32.330Z,16.00
2018-07-26T00:21:01.774Z,16.03
2018-07-26T00:23:31.232Z,14.90
2018-07-26T00:26:00.650Z,15.50
2018-07-26T00:28:30.362Z,15.03
2018-07-26T00:30:59.246Z,17.23
2018-07-26T00:33:28.141Z,15.60
2018-07-26T00:35:57.017Z,16.13
2018-07-26T00:38:26.485Z,14.63
2018-07-26T00:40:55.995Z,16.40
2018-07-26T00:43:25.528Z,17.40
2018-07-26T00:45:55.302Z,19.40
2018-07-26T00:48:24.811Z,16.70
2018-07-26T00:50:54.341Z,17.83
2018-07-26T00:53:23.718Z,20.60
2018-07-26T00:55:53.119Z,20.13
2018-07-26T00:58:22.546Z,18.60
2018-07-26T01:00:51.941Z,18.70
2018-07-26T01:03:21.419Z,19.17
2018-07-26T01:05:50.793Z,20.80
2018-07-26T01:08:19.746Z,21.03
2018-07-26T01:10:49.130Z,19.90
2018-07-26T01:13:18.550Z,20.70
2018-07-26T01:15:47.915Z,19.30
2018-07-26T01:18:17.364Z,19.80
2018-07-26T01:20:46.815Z,15.33
2018-07-26T01:23:16.234Z,15.80
2018-07-26T01:25:45.660Z,17.03
2018-07-26T01:28:15.113Z,17.33
2018-07-26T01:30:44.086Z,19.87
2018-07-26T01:33:13.546Z,22.67
2018-07-26T01:35:43.026Z,23.60
2018-07-26T01:38:12.460Z,23.60
2018-07-26T01:40:41.842Z,26.77
2018-07-26T01:44:20.904Z,27.30
2018-07-26T01:46:50.373Z,28.60
2018-07-26T01:49:19.818Z,29.63
2018-07-26T01:51:49.222Z,30.97
2018-07-26T01:54:18.697Z,29.33
2018-07-26T01:56:48.082Z,28.73
2018-07-26T01:59:17.500Z,31.10
2018-07-26T02:01:46.946Z,30.37
2018-07-26T02:04:16.335Z,30.57
2018-07-26T02:06:45.759Z,30.47
2018-07-26T02:09:15.104Z,31.00
2018-07-26T02:11:44.479Z,32.37
2018-07-26T02:14:18.936Z,30.83
2018-07-26T02:16:48.333Z,31.77
2018-07-26T02:19:17.746Z,32.03
2018-07-26T02:21:47.169Z,33.20
2018-07-26T02:24:16.624Z,32.03
2018-07-26T02:26:46.080Z,30.53
2018-07-26T02:29:15.492Z,29.27
2018-07-26T02:31:44.913Z,30.00
2018-07-26T02:34:13.766Z,30.47
2018-07-26T02:36:43.218Z,29.97
2018-07-26T02:39:12.019Z,30.37
2018-07-26T02:41:41.389Z,29.63
2018-07-26T02:44:10.821Z,29.00
2018-07-26T02:46:40.236Z,27.73
2018-07-26T02:49:09.668Z,30.17
2018-07-26T02:51:39.075Z,28.30
2018-07-26T02:54:08.426Z,28.33
2018-07-26T02:56:37.782Z,28.50
2018-07-26T02:59:07.273Z,27.40
2018-07-26T03:01:36.694Z,25.20
2018-07-26T03:04:06.407Z,25.27
2018-07-26T03:06:35.411Z,26.80
2018-07-26T03:09:06.788Z,24.87
2018-07-26T03:11:36.179Z,24.13
2018-07-26T03:14:05.046Z,24.57
2018-07-26T03:16:34.543Z,23.87
2018-07-26T03:19:04.118Z,22.37
2018-07-26T03:21:33.597Z,22.77
2018-07-26T03:24:03.102Z,23.30
2018-07-26T03:26:32.566Z,21.93
2018-07-26T03:29:02.088Z,23.73
2018-07-26T03:31:30.926Z,20.80
2018-07-26T03:34:00.355Z,21.43
2018-07-26T03:36:29.875Z,24.50
2018-07-26T03:38:59.316Z,24.47
2018-07-26T03:41:28.772Z,25.30
2018-07-26T03:43:58.184Z,27.67
2018-07-26T03:46:27.585Z,36.63
2018-07-26T03:48:57.027Z,36.97
2018-07-26T03:51:26.423Z,30.90
2018-07-26T03:53:55.996Z,31.77
2018-07-26T03:56:25.430Z,30.33
2018-07-26T03:58:54.816Z,29.70
2018-07-26T04:01:23.663Z,26.73
2018-07-26T04:03:53.093Z,26.03
2018-07-26T04:06:22.777Z,26.00
2018-07-26T04:08:52.430Z,25.70
2018-07-26T04:11:21.314Z,28.38
2018-07-26T04:13:50.139Z,27.17
2018-07-26T04:16:19.558Z,27.40
2018-07-26T04:18:48.991Z,26.17
2018-07-26T04:21:18.418Z,26.70
2018-07-26T04:23:47.255Z,23.80
2018-07-26T04:26:16.676Z,24.43
2018-07-26T04:28:46.138Z,24.93
2018-07-26T04:31:15.569Z,25.23
2018-07-26T04:33:44.944Z,24.00
2018-07-26T04:36:14.367Z,25.90
2018-07-26T04:38:43.806Z,25.47
2018-07-26T04:41:13.412Z,28.70
2018-07-26T04:43:42.761Z,26.13
2018-07-26T04:46:12.207Z,27.60
2018-07-26T04:48:41.667Z,28.20
2018-07-26T04:51:11.067Z,28.17
2018-07-26T04:53:40.439Z,27.00
2018-07-26T04:56:10.083Z,27.20
2018-07-26T04:58:39.464Z,27.07
2018-07-26T05:01:08.417Z,26.70
2018-07-26T05:03:37.842Z,30.20
2018-07-26T05:06:07.385Z,30.90
2018-07-26T05:08:36.846Z,32.07
2018-07-26T05:11:06.436Z,33.90
2018-07-26T05:13:35.845Z,33.13
2018-07-26T05:16:05.281Z,31.97
2018-07-26T05:18:34.244Z,32.60
2018-07-26T05:21:03.653Z,31.70
2018-07-26T05:23:33.012Z,33.57
2018-07-26T05:26:02.378Z,32.50
2018-07-26T05:28:31.344Z,33.10
2018-07-26T05:31:00.821Z,32.67
2018-07-26T05:33:30.363Z,33.30
2018-07-26T05:35:59.206Z,33.53
2018-07-26T05:38:28.600Z,32.20
2018-07-26T05:40:58.023Z,33.40
2018-07-26T05:43:27.446Z,33.73
2018-07-26T05:45:56.988Z,31.20
2018-07-26T05:48:26.422Z,32.57
2018-07-26T05:50:55.885Z,32.00
2018-07-26T05:53:25.441Z,31.17
2018-07-26T05:55:54.842Z,29.37
2018-07-26T05:58:24.345Z,30.57
2018-07-26T06:00:53.834Z,31.00
2018-07-26T06:03:23.271Z,32.97
2018-07-26T06:05:52.715Z,31.75
2018-07-26T06:08:21.692Z,34.70
2018-07-26T06:10:50.538Z,33.40
2018-07-26T06:13:19.991Z,34.23
2018-07-26T06:15:49.386Z,31.10
2018-07-26T06:18:18.249Z,28.90
2018-07-26T06:20:47.690Z,30.20
2018-07-26T06:23:16.593Z,29.40
2018-07-26T06:25:45.987Z,27.33
2018-07-26T06:28:14.948Z,30.30
2018-07-26T06:30:44.409Z,29.90
2018-07-26T06:33:14.274Z,29.57
2018-07-26T06:35:43.687Z,29.27
2018-07-26T06:38:12.511Z,28.50
2018-07-26T06:40:41.997Z,28.30
2018-07-26T06:43:11.410Z,29.97
2018-07-26T06:45:40.944Z,26.17
2018-07-26T06:48:10.594Z,24.07
2018-07-26T06:50:39.995Z,25.07
2018-07-26T06:53:09.568Z,25.03
2018-07-26T06:55:39.111Z,26.37
2018-07-26T06:58:07.977Z,21.53
2018-07-26T07:00:37.386Z,23.60
2018-07-26T07:03:06.833Z,21.30
2018-07-26T07:05:36.287Z,23.77
2018-07-26T07:08:05.689Z,25.27
2018-07-26T07:10:35.119Z,24.93
2018-07-26T07:13:04.054Z,24.90
2018-07-26T07:15:33.533Z,25.20
2018-07-26T07:18:03.004Z,24.37
2018-07-26T07:20:32.446Z,26.30
2018-07-26T07:23:01.896Z,26.07
2018-07-26T07:25:31.467Z,27.17
2018-07-26T07:28:00.895Z,28.80
2018-07-26T07:30:30.342Z,26.10
2018-07-26T07:32:59.306Z,29.57
2018-07-26T07:35:28.849Z,28.60
2018-07-26T07:37:57.712Z,32.70
2018-07-26T07:40:27.134Z,29.10
2018-07-26T07:42:56.125Z,30.50
2018-07-26T07:45:25.536Z,30.73
2018-07-26T07:47:54.898Z,28.77
2018-07-26T07:50:24.322Z,30.95
2018-07-26T07:52:53.734Z,30.17
2018-07-26T07:55:23.244Z,31.20
2018-07-26T07:57:52.090Z,32.70
2018-07-26T08:00:21.678Z,32.43
2018-07-26T08:02:51.104Z,31.20
2018-07-26T08:05:20.639Z,31.60
2018-07-26T08:07:50.105Z,34.60
2018-07-26T08:10:19.509Z,33.85
2018-07-26T08:12:49.079Z,33.47
2018-07-26T08:15:18.489Z,32.37
2018-07-26T08:17:47.866Z,33.30
2018-07-26T08:20:16.753Z,34.87
2018-07-26T08:22:46.127Z,38.07
2018-07-26T08:25:14.994Z,39.27
2018-07-26T08:27:44.397Z,38.53
2018-07-26T08:30:13.755Z,40.40
2018-07-26T08:32:42.606Z,39.37
2018-07-26T08:35:12.105Z,41.90
2018-07-26T08:37:41.651Z,39.90
2018-07-26T08:40:10.591Z,42.40
2018-07-26T08:42:40.055Z,40.20
2018-07-26T08:45:09.588Z,39.27
2018-07-26T08:47:39.008Z,39.53
2018-07-26T08:50:08.931Z,38.42
2018-07-26T08:52:38.407Z,35.10
2018-07-26T08:55:07.889Z,37.47
2018-07-26T08:57:37.452Z,36.57
2018-07-26T09:00:07.938Z,35.67
2018-07-26T09:02:37.378Z,35.60
2018-07-26T09:05:07.505Z,35.00
2018-07-26T09:07:37.030Z,36.97
2018-07-26T09:10:06.023Z,33.03
2018-07-26T09:12:34.917Z,33.77
2018-07-26T09:15:03.843Z,33.33
2018-07-26T09:17:33.326Z,33.30
2018-07-26T09:20:02.768Z,30.43
2018-07-26T09:22:32.155Z,29.77
2018-07-26T09:25:01.848Z,30.50
2018-07-26T09:27:31.299Z,28.90
2018-07-26T09:30:00.788Z,26.33
2018-07-26T09:32:30.274Z,27.00
2018-07-26T09:34:59.774Z,27.43
2018-07-26T09:37:29.208Z,26.17
2018-07-26T09:39:58.725Z,27.53
2018-07-26T09:42:28.112Z,26.00
2018-07-26T09:44:57.554Z,30.97
2018-07-26T09:47:26.476Z,29.83
2018-07-26T09:49:55.880Z,30.67
2018-07-26T09:52:25.290Z,28.63
2018-07-26T09:54:54.911Z,28.30
2018-07-26T09:57:23.954Z,30.07
2018-07-26T09:59:52.974Z,25.70
2018-07-26T10:02:22.542Z,23.97
2018-07-26T10:04:51.998Z,25.60
2018-07-26T10:07:21.560Z,26.47
2018-07-26T10:09:50.409Z,27.57
2018-07-26T10:12:19.899Z,28.03
2018-07-26T10:14:49.313Z,26.90
2018-07-26T10:17:18.794Z,27.20
2018-07-26T10:19:48.288Z,26.90
2018-07-26T10:22:17.765Z,24.10
2018-07-26T10:24:47.266Z,27.50
2018-07-26T10:27:16.731Z,27.67
2018-07-26T10:29:46.166Z,25.43
2018-07-26T10:32:15.683Z,28.13
2018-07-26T10:34:44.612Z,28.37
2018-07-26T10:37:14.037Z,24.17
2018-07-26T10:39:43.851Z,27.50
2018-07-26T10:42:13.294Z,25.30
2018-07-26T10:44:42.378Z,25.93
2018-07-26T10:47:11.836Z,26.13
2018-07-26T10:49:41.315Z,25.00
2018-07-26T10:52:10.823Z,26.93
2018-07-26T10:54:41.021Z,28.17
2018-07-26T10:57:11.670Z,29.50
2018-07-26T10:59:41.140Z,28.23
2018-07-26T11:02:10.638Z,28.50
2018-07-26T11:04:40.050Z,28.00
2018-07-26T11:07:09.500Z,24.67
2018-07-26T11:09:38.969Z,25.60
2018-07-26T11:12:08.571Z,26.67
2018-07-26T11:14:38.075Z,27.50
2018-07-26T11:17:07.569Z,25.87
2018-07-26T11:19:37.024Z,24.80
2018-07-26T11:22:06.419Z,27.50
2018-07-26T11:24:35.952Z,26.90
2018-07-26T11:27:05.520Z,26.47
2018-07-26T11:29:34.955Z,25.53
2018-07-26T11:32:04.489Z,25.07
2018-07-26T11:34:33.939Z,25.10
2018-07-26T11:37:03.356Z,24.37
2018-07-26T11:39:32.819Z,24.13
2018-07-26T11:42:02.249Z,22.90
2018-07-26T11:44:31.692Z,23.53
2018-07-26T11:47:01.227Z,23.23
2018-07-26T11:49:30.587Z,21.40
2018-07-26T11:52:00.976Z,23.80
2018-07-26T11:54:30.433Z,22.03
2018-07-26T11:56:59.949Z,22.17
2018-07-26T11:59:28.951Z,20.77
2018-07-26T12:01:58.472Z,23.20
2018-07-26T12:04:27.425Z,22.10
2018-07-26T12:06:56.932Z,22.00
2018-07-26T12:09:26.406Z,23.67
2018-07-26T12:11:55.832Z,21.60
2018-07-26T12:14:25.377Z,22.87
2018-07-26T12:16:54.886Z,24.97
2018-07-26T12:19:24.291Z,25.70
2018-07-26T12:21:53.107Z,24.83
2018-07-26T12:24:22.592Z,23.40
2018-07-26T12:26:51.872Z,24.03
2018-07-26T12:29:21.228Z,25.20
2018-07-26T12:31:50.769Z,25.90
2018-07-26T12:34:20.284Z,27.23
2018-07-26T12:36:49.796Z,24.40
2018-07-26T12:39:18.635Z,22.50
2018-07-26T12:41:47.999Z,28.10
2018-07-26T12:44:17.627Z,25.30
2018-07-26T12:46:47.191Z,26.50
2018-07-26T12:49:16.818Z,27.67
2018-07-26T12:51:45.658Z,27.87
2018-07-26T12:54:15.301Z,26.50
2018-07-26T12:56:44.939Z,26.30
2018-07-26T12:59:14.423Z,25.50
2018-07-26T13:01:43.281Z,26.23
2018-07-26T13:04:12.962Z,25.07
2018-07-26T13:06:42.508Z,27.57
2018-07-26T13:09:11.997Z,25.47
2018-07-26T13:11:41.477Z,28.23
2018-07-26T13:14:11.013Z,26.20
2018-07-26T13:16:40.519Z,25.97
2018-07-26T13:19:09.991Z,26.10
2018-07-26T13:21:39.879Z,26.83
2018-07-26T13:24:09.621Z,27.83
2018-07-26T13:26:39.067Z,27.50
2018-07-26T13:29:08.513Z,29.10
2018-07-26T13:31:37.984Z,27.90
2018-07-26T13:34:07.018Z,29.43
2018-07-26T13:36:36.435Z,26.73
2018-07-26T13:39:09.542Z,28.33
2018-07-26T13:41:39.358Z,30.07
2018-07-26T13:44:08.787Z,27.67
2018-07-26T13:46:38.233Z,27.87
2018-07-26T13:49:07.692Z,30.13
2018-07-26T13:51:36.565Z,34.07
2018-07-26T13:54:06.320Z,29.20
2018-07-26T13:56:35.892Z,32.50
2018-07-26T13:59:07.142Z,30.00
2018-07-26T14:01:36.610Z,27.77
2018-07-26T14:04:06.278Z,31.60
2018-07-26T14:06:35.712Z,30.00
2018-07-26T14:09:07.522Z,27.60
2018-07-26T14:11:36.361Z,32.20
2018-07-26T14:14:05.819Z,29.73
2018-07-26T14:16:35.294Z,29.33
2018-07-26T14:19:04.758Z,32.00
2018-07-26T14:21:34.227Z,28.57
2018-07-26T14:24:04.463Z,29.40
2018-07-26T14:26:33.878Z,32.60
2018-07-26T14:29:03.504Z,30.23
2018-07-26T14:31:32.952Z,32.30
2018-07-26T14:34:02.405Z,29.30
2018-07-26T14:36:31.818Z,29.53
2018-07-26T14:39:01.291Z,29.50
2018-07-26T14:41:30.667Z,25.77
2018-07-26T14:44:00.100Z,28.87
2018-07-26T14:46:29.702Z,29.60
2018-07-26T14:48:59.238Z,26.90
2018-07-26T14:51:28.692Z,27.43
2018-07-26T14:53:58.188Z,30.13
2018-07-26T14:56:28.012Z,33.13
2018-07-26T14:58:57.794Z,30.40
2018-07-26T15:01:27.314Z,28.00
2018-07-26T15:03:56.769Z,26.67
2018-07-26T15:06:26.300Z,31.27
2018-07-26T15:08:55.724Z,29.67
2018-07-26T15:11:25.175Z,26.13
2018-07-26T15:13:54.552Z,29.43
2018-07-26T15:16:23.525Z,27.97
2018-07-26T15:18:52.966Z,25.40
2018-07-26T15:21:22.542Z,26.30
2018-07-26T15:23:51.431Z,27.00
2018-07-26T15:26:21.209Z,27.63
2018-07-26T15:28:50.716Z,30.20
2018-07-26T15:31:20.180Z,29.50
2018-07-26T15:33:49.566Z,28.77
2018-07-26T15:36:18.485Z,29.17
2018-07-26T15:38:47.879Z,29.50
2018-07-26T15:41:17.401Z,26.53
2018-07-26T15:43:46.832Z,29.57
2018-07-26T15:46:16.263Z,29.20
2018-07-26T15:48:45.117Z,29.73
2018-07-26T15:51:14.814Z,27.53
2018-07-26T15:53:44.386Z,30.33
2018-07-26T15:56:13.922Z,28.67
2018-07-26T15:58:43.318Z,25.83
2018-07-26T16:01:12.900Z,26.50
2018-07-26T16:03:42.335Z,24.50
2018-07-26T16:06:11.755Z,28.90
2018-07-26T16:08:41.141Z,32.20
2018-07-26T16:11:10.531Z,28.33
2018-07-26T16:13:39.931Z,27.90
2018-07-26T16:16:09.362Z,27.17
2018-07-26T16:18:38.875Z,25.80
2018-07-26T16:21:08.344Z,28.67
2018-07-26T16:23:37.754Z,26.40
2018-07-26T16:26:07.196Z,26.57
2018-07-26T16:28:36.802Z,30.23
2018-07-26T16:31:06.289Z,27.07
2018-07-26T16:33:35.754Z,28.17
2018-07-26T16:36:05.305Z,27.87
2018-07-26T16:38:34.724Z,28.03
2018-07-26T16:41:04.185Z,27.37
2018-07-26T16:43:33.605Z,28.17
2018-07-26T16:46:03.074Z,27.50
2018-07-26T16:48:32.500Z,28.43
2018-07-26T16:51:01.942Z,27.50
2018-07-26T16:53:31.385Z,26.73
2018-07-26T16:56:00.846Z,27.50
2018-07-26T16:58:30.410Z,25.70
2018-07-26T17:00:59.784Z,26.30
2018-07-26T17:03:28.741Z,26.10
2018-07-26T17:05:58.162Z,24.47
2018-07-26T17:08:27.985Z,27.03
2018-07-26T17:10:57.525Z,24.97
2018-07-26T17:13:27.019Z,25.47
2018-07-26T17:15:56.700Z,23.00
2018-07-26T17:18:25.566Z,26.20
2018-07-26T17:20:55.012Z,27.73
2018-07-26T17:23:24.475Z,25.40
2018-07-26T17:25:53.954Z,26.50
2018-07-26T17:28:23.375Z,23.70
2018-07-26T17:30:52.831Z,27.13
2018-07-26T17:33:22.237Z,25.57
2018-07-26T17:35:51.639Z,23.90
2018-07-26T17:38:21.103Z,21.90
2018-07-26T17:40:50.539Z,22.73
2018-07-26T17:43:19.970Z,25.80
2018-07-26T17:45:49.516Z,25.20
2018-07-26T17:48:19.021Z,24.00
2018-07-26T17:50:48.507Z,26.43
2018-07-26T17:53:18.004Z,22.23
2018-07-26T17:55:47.404Z,22.50
2018-07-26T17:58:16.992Z,20.80
2018-07-26T18:00:46.497Z,20.87
2018-07-26T18:03:15.948Z,23.07
2018-07-26T18:05:45.351Z,21.03
2018-07-26T18:08:14.261Z,23.73
2018-07-26T18:10:43.089Z,21.17
2018-07-26T18:13:12.472Z,25.30
2018-07-26T18:15:41.889Z,25.40
2018-07-26T18:18:11.340Z,21.83
2018-07-26T18:20:40.886Z,24.47
2018-07-26T18:23:10.333Z,24.20
2018-07-26T18:25:39.762Z,23.60
2018-07-26T18:28:08.716Z,26.73
2018-07-26T18:30:38.090Z,25.87
2018-07-26T18:33:07.535Z,24.13
2018-07-26T18:35:36.970Z,26.23
2018-07-26T18:38:06.071Z,24.73
2018-07-26T18:40:35.536Z,27.57
2018-07-26T18:43:05.133Z,29.03
2018-07-26T18:45:34.500Z,25.93
2018-07-26T18:48:03.955Z,25.20
2018-07-26T18:50:33.470Z,26.90
2018-07-26T18:53:02.907Z,25.07
2018-07-26T18:55:32.409Z,25.43
2018-07-26T18:58:01.891Z,26.83
2018-07-26T19:00:30.844Z,25.70
2018-07-26T19:03:00.344Z,23.10
2018-07-26T19:05:29.992Z,25.73
2018-07-26T19:07:59.462Z,25.03
2018-07-26T19:10:28.868Z,24.63
2018-07-26T19:12:58.285Z,25.00
2018-07-26T19:15:27.703Z,24.23
2018-07-26T19:17:56.546Z,24.73
2018-07-26T19:20:25.944Z,26.07
2018-07-26T19:22:55.311Z,24.73
2018-07-26T19:25:24.422Z,25.40
2018-07-26T19:27:53.791Z,27.93
2018-07-26T19:30:22.641Z,25.80
2018-07-26T19:32:52.226Z,23.93
2018-07-26T19:35:21.735Z,25.50
2018-07-26T19:37:51.537Z,27.07
2018-07-26T19:40:21.039Z,26.17
2018-07-26T19:42:50.455Z,25.70
2018-07-26T19:45:19.843Z,24.93
2018-07-26T19:47:49.355Z,26.33
2018-07-26T19:50:18.817Z,24.80
2018-07-26T19:52:48.235Z,25.40
2018-07-26T19:55:17.142Z,29.20
2018-07-26T19:57:46.522Z,27.67
2018-07-26T20:00:15.436Z,27.60
2018-07-26T20:02:44.882Z,28.17
2018-07-26T20:05:14.323Z,30.30
2018-07-26T20:07:43.834Z,27.73
2018-07-26T20:10:13.514Z,25.93
2018-07-26T20:12:43.235Z,27.67
2018-07-26T20:15:12.746Z,26.03
2018-07-26T20:17:41.570Z,26.13
2018-07-26T20:20:12.199Z,23.73
2018-07-26T20:22:41.875Z,26.70
2018-07-26T20:25:10.670Z,26.17
2018-07-26T20:27:40.166Z,24.23
2018-07-26T20:30:10.432Z,26.97
2018-07-26T20:32:40.450Z,25.50
2018-07-26T20:35:10.688Z,26.53
2018-07-26T20:37:40.238Z,24.73
2018-07-26T20:40:11.540Z,25.30
2018-07-26T20:42:43.150Z,24.03
2018-07-26T20:45:13.365Z,24.47
2018-07-26T20:47:42.973Z,24.50
2018-07-26T20:50:12.592Z,23.83
2018-07-26T20:52:42.016Z,26.60
2018-07-26T20:55:11.659Z,24.43
2018-07-26T20:57:41.253Z,26.30
2018-07-26T21:00:12.797Z,27.30
2018-07-26T21:02:42.969Z,27.07
2018-07-26T21:05:12.971Z,26.87
2018-07-26T21:07:42.508Z,28.07
2018-07-26T21:10:11.967Z,28.73
2018-07-26T21:12:41.724Z,26.40
2018-07-26T21:15:11.221Z,26.07
2018-07-26T21:17:40.046Z,27.13
2018-07-26T21:20:09.483Z,27.47
2018-07-26T21:22:38.948Z,28.87
2018-07-26T21:25:08.547Z,28.63
2018-07-26T21:27:38.153Z,28.10
2018-07-26T21:30:08.024Z,26.67
2018-07-26T21:32:38.431Z,27.47
2018-07-26T21:35:08.983Z,30.10
2018-07-26T21:37:38.466Z,28.00
2018-07-26T21:40:08.419Z,27.67
2018-07-26T21:42:37.766Z,28.70
2018-07-26T21:45:07.717Z,27.70
2018-07-26T21:47:37.270Z,26.63
2018-07-26T21:50:06.818Z,27.97
2018-07-26T21:52:36.302Z,25.70
2018-07-26T21:55:05.915Z,27.65
2018-07-26T21:57:35.307Z,27.73
2018-07-26T22:00:06.826Z,28.13
2018-07-26T22:02:36.503Z,26.20
2018-07-26T22:05:06.954Z,25.70
2018-07-26T22:07:36.719Z,25.87
2018-07-26T22:10:06.760Z,25.70
2018-07-26T22:12:35.593Z,31.13
2018-07-26T22:15:05.642Z,27.60
2018-07-26T22:17:35.635Z,28.13
2018-07-26T22:20:05.720Z,29.30
2018-07-26T22:22:34.596Z,28.10
2018-07-26T22:25:04.063Z,30.37
2018-07-26T22:27:33.498Z,29.10
2018-07-26T22:30:02.361Z,30.30
2018-07-26T22:32:31.720Z,28.97
2018-07-26T22:35:01.262Z,31.30
2018-07-26T22:37:31.587Z,28.20
2018-07-26T22:40:01.005Z,29.23
2018-07-26T22:42:30.439Z,31.23
2018-07-26T22:44:59.397Z,30.90
2018-07-26T22:47:28.870Z,29.63
2018-07-26T22:49:58.247Z,28.53
2018-07-26T22:52:27.815Z,32.27
2018-07-26T22:54:57.249Z,30.90
2018-07-26T22:57:26.233Z,30.50
2018-07-26T22:59:55.213Z,34.40
2018-07-26T23:02:24.626Z,34.07
2018-07-26T23:04:54.147Z,41.63
2018-07-26T23:07:23.635Z,39.23
2018-07-26T23:09:53.123Z,35.00
2018-07-26T23:12:22.551Z,36.73
2018-07-26T23:14:51.553Z,37.30
2018-07-26T23:17:21.075Z,35.50
2018-07-26T23:19:50.533Z,37.23
2018-07-26T23:22:19.423Z,36.60
2018-07-26T23:24:48.824Z,34.83
2018-07-26T23:27:18.327Z,33.70
2018-07-26T23:29:49.064Z,34.83
2018-07-26T23:32:18.459Z,35.50
2018-07-26T23:34:47.859Z,34.60
2018-07-26T23:37:17.235Z,34.40
2018-07-26T23:39:46.668Z,32.70
2018-07-26T23:42:16.082Z,32.63
2018-07-26T23:44:45.489Z,32.33
2018-07-26T23:47:14.357Z,30.67
2018-07-26T23:49:43.801Z,31.13
2018-07-26T23:52:13.185Z,30.23
2018-07-26T23:54:42.034Z,33.47
2018-07-26T23:57:11.577Z,32.90
2018-07-26T23:59:40.396Z,30.80
